Terminal Aerodrome Forecast
Issued by NWS

Home | Current Version | Previous Version | Text Only | Print | Product List | Glossary Off
Versions: 1 2 3 4 5 6 7 8 9 10 11 12 13 14 15 16 17 18 19 20

000
FTUS43 KOAX 250108 AAB
TAFCDR
TAF AMD
KCDR 250108Z 2501/2524 VRB05KT 6SM -SN BR SCT010 OVC050
     FM250200 27009KT P6SM BKN060
     FM251700 29018G28KT P6SM SCT050 BKN100=

USA.gov is the U.S. government's official web portal to all federal, state and local government web resources and services.